Flight Track Log - Related Links

Times and Time Zones

All times are in EDT time to prevent confusion due to time zone crossing. See the UPS1269 flight status page for this flight to view local times or setup timezone preferences in your user account.

Time Position Orientation Groundspeed Altitude Reporting Facility
EDT Latitude Longitude Course Direction KTS MPH feet Rate Location/Type
Thu 12:13:16 AM 36.0990 -80.1910 313° West 294 338 10,500  Level FlightAware ADS-B
Thu 12:14:00 AM 36.1500 -80.2450 319° Northwest 354 407 11,500 714 Climbing FlightAware ADS-B
Thu 12:14:40 AM 36.1980 -80.2800 330° Northwest 354 407 11,500 2,294 Level FlightAware ADS-B
Thu 12:15:42 AM 36.2792 -80.3814 330° Northwest 329 379 15,400 2,208 Climbing Atlanta Center
Thu 12:21:44 AM 36.5950 -81.2070 330° Northwest 476 548 27,100 1,896 Climbing FlightAware ADS-B
Thu 12:22:24 AM 36.6310 -81.3060 294° West 480 552 28,100 1,663 Climbing FlightAware ADS-B
Thu 12:23:07 AM 36.6720 -81.4140 295° West 478 550 29,400 1,857 Climbing FlightAware ADS-B
Thu 12:23:48 AM 36.7110 -81.5180 295° West 471 542 30,700 2,034 Climbing FlightAware ADS-B
Thu 12:24:06 AM 36.7294 -81.5694 294° West 467 537 31,400 1,592 Climbing FlightAware ADS-B
Thu 12:24:37 AM 36.7580 -81.6451 295° West 468 539 32,000 1,091 Climbing FlightAware ADS-B
Thu 12:25:23 AM 36.7991 -81.7560 295° West 472 543 32,800 1,169 Climbing FlightAware ADS-B
Thu 12:25:54 AM 36.8250 -81.8270 295° West 468 539 33,500 1,395 Climbing FlightAware ADS-B
Thu 12:26:06 AM 36.8384 -81.8639 294° West 467 537 33,800 682 Climbing FlightAware ADS-B
Thu 12:26:38 AM 36.8665 -81.9421 294° West 464 534 34,000 158 Climbing FlightAware ADS-B
Thu 12:27:22 AM 36.9020 -82.0380 295° West 457 526 34,000  Level FlightAware ADS-B
Thu 12:27:35 AM 36.9168 -82.0790 294° West 456 525 34,000  Level FlightAware ADS-B
Thu 12:28:14 AM 36.9511 -82.1727 295° West 458 527 34,000  Level FlightAware ADS-B
Thu 12:28:45 AM 36.9784 -82.2477 295° West 458 527 34,000  Level FlightAware ADS-B
Thu 12:29:16 AM 37.0051 -82.3223 294° West 458 527 34,000  Level FlightAware ADS-B
Thu 12:29:47 AM 37.0326 -82.3973 295° West 460 529 34,000  Level FlightAware ADS-B
Thu 12:29:59 AM 37.0430 -82.4265 294° West 460 529 34,000  Level FlightAware ADS-B
Thu 12:30:15 AM 37.0543 -82.4667 289° West 460 529 34,000  Level FlightAware ADS-B
Thu 12:30:46 AM 37.0732 -82.5425 287° West 457 526 34,000  Level FlightAware ADS-B
Thu 12:31:17 AM 37.0927 -82.6229 287° West 453 521 34,000  Level FlightAware ADS-B
Thu 12:31:47 AM 37.1115 -82.6978 287° West 452 520 34,000  Level FlightAware ADS-B
Thu 12:32:17 AM 37.1308 -82.7730 288° West 455 524 34,000  Level FlightAware ADS-B
Thu 12:32:48 AM 37.1501 -82.8511 287° West 456 525 34,000  Level FlightAware ADS-B
Thu 12:33:18 AM 37.1691 -82.9263 288° West 454 522 34,000  Level FlightAware ADS-B
Thu 12:33:48 AM 37.1881 -83.0017 288° West 457 526 34,000  Level FlightAware ADS-B
Thu 12:34:18 AM 37.2069 -83.0776 287° West 455 524 34,000  Level FlightAware ADS-B
Thu 12:34:49 AM 37.2256 -83.1527 287° West 453 521 34,000 -512 Level FlightAware ADS-B
Thu 12:35:40 AM 37.2540 -83.2690 287° West 457 526 33,300 -909 Descending FlightAware ADS-B
Thu 12:35:55 AM 37.2667 -83.3218 287° West 457 526 33,000 -1,065 Descending FlightAware ADS-B
Thu 12:36:42 AM 37.2954 -83.4370 287° West 449 517 32,200 -1,000 Descending FlightAware ADS-B
Thu 12:37:13 AM 37.3142 -83.5162 287° West 442 509 31,700 -984 Descending FlightAware ADS-B
Thu 12:37:43 AM 37.3322 -83.5897 287° West 441 507 31,200 -1,065 Descending FlightAware ADS-B
Thu 12:38:15 AM 37.3514 -83.6676 287° West 437 503 30,600 -1,135 Descending FlightAware ADS-B
Thu 12:38:57 AM 37.3753 -83.7680 287° West 423 487 29,800 -1,250 Descending FlightAware ADS-B
Thu 12:39:27 AM 37.3923 -83.8377 287° West 414 476 29,100 -1,479 Descending FlightAware ADS-B
Thu 12:40:10 AM 37.4159 -83.9358 287° West 408 470 28,000 -1,459 Descending FlightAware ADS-B
Thu 12:40:41 AM 37.4320 -84.0054 286° West 402 463 27,300 -1,385 Descending FlightAware ADS-B
Thu 12:41:15 AM 37.4502 -84.0811 287° West 397 457 26,500 -1,485 Descending FlightAware ADS-B
Thu 12:42:22 AM 37.4802 -84.2286 284° West 385 443 24,800 -1,469 Descending FlightAware ADS-B
Thu 12:42:53 AM 37.4964 -84.2937 287° West 375 432 24,100 -1,377 Descending FlightAware ADS-B
Thu 12:43:23 AM 37.5120 -84.3554 288° West 367 422 23,400 -1,742 Descending FlightAware ADS-B
Thu 12:43:55 AM 37.5273 -84.4205 287° West 365 420 22,300 -2,333 Descending FlightAware ADS-B
Thu 12:45:11 AM 37.5657 -84.5801 287° West 379 436 19,200 -2,317 Descending FlightAware ADS-B
Thu 12:46:20 AM 37.5958 -84.7128 287° West 371 427 16,700 -2,077 Descending Indianapolis Center
Thu 12:47:21 AM 37.6244 -84.8314 287° West 354 407 14,700 -1,918 Descending Indianapolis Center
Thu 12:48:22 AM 37.6542 -84.9403 289° West 330 380 12,800 -1,721 Descending Indianapolis Center
Thu 12:49:23 AM 37.7214 -84.9986 326° Northwest 291 335 11,200 -875 Descending Indianapolis Center
Thu 12:54:53 AM 37.9390 -85.3870 326° Northwest 217 250 7,100 -695 Descending FlightAware ADS-B
Thu 12:55:17 AM 37.9420 -85.4190 277° West 216 249 7,100  Level FlightAware ADS-B
Thu 12:55:49 AM 37.9460 -85.4580 277° West 215 247 7,100  Level FlightAware ADS-B
Thu 12:56:17 AM 37.9490 -85.4930 276° West 215 247 7,100  Level FlightAware ADS-B
Thu 12:56:45 AM 37.9530 -85.5300 278° West 219 252 7,100  Level FlightAware ADS-B
Thu 12:57:01 AM 37.9570 -85.5500 284° West 221 254 7,100 -250 Level FlightAware ADS-B
Thu 12:57:09 AM 37.9610 -85.5590 299° West 227 261 7,000 -1,071 Descending FlightAware ADS-B
Thu 12:57:29 AM 37.9800 -85.5700 335° Northwest 239 275 6,600 -933 Descending FlightAware ADS-B
Thu 12:57:54 AM 38.0070 -85.5680 North 231 266 6,300 -556 Descending FlightAware ADS-B
Thu 12:58:23 AM 38.0370 -85.5670 North 216 249 6,100 -235 Descending FlightAware ADS-B
Thu 12:58:45 AM 38.0590 -85.5660 North 214 246 6,100  Level FlightAware ADS-B
Thu 12:59:07 AM 38.0800 -85.5700 351° North 210 242 6,100  Level FlightAware ADS-B
Thu 12:59:35 AM 38.1050 -85.5770 348° North 196 226 6,100  Level FlightAware ADS-B
Thu 12:59:47 AM 38.1160 -85.5810 344° North 191 220 6,100  Level FlightAware ADS-B
Thu 12:59:55 AM 38.1230 -85.5830 347° North 190 219 6,100 -385 Level FlightAware ADS-B
Thu 01:02:23 AM 38.2520 -85.6200 347° North 188 216 5,100 -335 Descending FlightAware ADS-B
Thu 01:02:54 AM 38.2790 -85.6270 348° North 190 219 5,100  Level FlightAware ADS-B
Thu 01:03:22 AM 38.3030 -85.6350 345° North 191 220 5,100  Level FlightAware ADS-B
Thu 01:03:48 AM 38.3260 -85.6410 348° North 188 216 5,100  Level FlightAware ADS-B
Thu 01:04:04 AM 38.3390 -85.6450 346° North 188 216 5,100 -571 Level FlightAware ADS-B
Thu 01:04:30 AM 38.3620 -85.6520 347° North 189 217 4,700 -964 Descending FlightAware ADS-B
Thu 01:05:00 AM 38.3770 -85.6730 312° West 171 197 4,200 -643 Descending FlightAware ADS-B
Thu 01:05:26 AM 38.3730 -85.7000 259° West 168 193 4,100 -107 Descending FlightAware ADS-B
Thu 01:05:56 AM 38.3680 -85.7280 257° West 171 197 4,100 -107 Level FlightAware ADS-B
Thu 01:06:22 AM 38.3590 -85.7510 243° Southwest 178 205 4,000 -429 Descending FlightAware ADS-B
Thu 01:06:38 AM 38.3460 -85.7570 200° South 181 208 3,800 -1,000 Descending FlightAware ADS-B
Thu 01:07:04 AM 38.3240 -85.7630 192° South 184 212 3,300 -1,111 Descending FlightAware ADS-B
Thu 01:07:32 AM 38.3010 -85.7670 188° South 179 206 2,800 -643 Descending FlightAware ADS-B
Thu 01:08:00 AM 38.2790 -85.7640 174° South 150 173 2,700 -621 Descending FlightAware ADS-B
Thu 01:08:30 AM 38.2590 -85.7560 163° South 150 173 2,200 -1,071 Descending FlightAware ADS-B
Thu 01:08:56 AM 38.2430 -85.7500 164° South 136 157 1,700 -889 Descending FlightAware ADS-B
Thu 01:09:24 AM 38.2250 -85.7440 165° South 138 159 1,400 -643 Descending FlightAware ADS-B
Thu 01:09:52 AM 38.2080 -85.7390 167° South 135 155 1,100 -679 Descending FlightAware ADS-B
Thu 01:10:17 AM 38.1930 -85.7340 165° South 134 154 800 -720 Descending FlightAware ADS-B
Thu 01:10:44 AM 38.1780 -85.7280 163° South 110 127 -1,778 Descending FlightAware ADS-B
Thu 01:11:44 AM 38.1720 -85.7280 180° South 33 38  Level FlightAware ADS-B
Thu 01:12:54 AM 38.1760 -85.7330 316° Northwest 28 32  Level FlightAware ADS-B
Thu 01:13:24 AM 38.1780 -85.7380 297° West 31 36  Level FlightAware ADS-B
Thu 01:13:44 AM 38.1790 -85.7420 288° West 25 29  Level FlightAware ADS-B
Thu 01:14:56 AM 38.1740 -85.7420 122° Southeast 26 30  Level FlightAware ADS-B

Login

Don't have an account? Register now (free) for customized features, flight alerts, and more!